createdAt,value
2018-04-12T00:00:36.091Z,64.39
2018-04-12T00:03:04.481Z,64.35
2018-04-12T00:05:33.042Z,64.82
2018-04-12T00:08:01.449Z,65.25
2018-04-12T00:10:29.860Z,66.42
2018-04-12T00:12:58.264Z,66.15
2018-04-12T00:15:26.762Z,65.12
2018-04-12T00:17:55.305Z,69.56
2018-04-12T00:20:23.725Z,65.56
2018-04-12T00:22:53.028Z,65.30
2018-04-12T00:25:21.454Z,65.31
2018-04-12T00:27:49.870Z,62.69
2018-04-12T00:30:18.327Z,62.14
2018-04-12T00:32:46.754Z,65.06
2018-04-12T00:35:15.214Z,62.73
2018-04-12T00:37:43.620Z,61.74
2018-04-12T00:40:12.024Z,64.08
2018-04-12T00:42:40.481Z,63.04
2018-04-12T00:45:08.865Z,64.76
2018-04-12T00:47:37.261Z,65.87
2018-04-12T00:50:05.658Z,63.32
2018-04-12T00:52:34.064Z,64.14
2018-04-12T00:55:02.522Z,62.65
2018-04-12T00:57:30.904Z,63.48
2018-04-12T00:59:59.349Z,64.42
2018-04-12T01:02:27.754Z,65.57
2018-04-12T01:04:56.150Z,63.88
2018-04-12T01:07:24.597Z,62.97
2018-04-12T01:09:52.984Z,65.41
2018-04-12T01:12:21.406Z,65.09
2018-04-12T01:14:49.784Z,65.36
2018-04-12T01:17:18.182Z,65.76
2018-04-12T01:19:46.671Z,65.45
2018-04-12T01:22:18.249Z,64.29
2018-04-12T01:24:46.732Z,62.17
2018-04-12T01:27:15.463Z,61.43
2018-04-12T01:29:43.843Z,63.53
2018-04-12T01:32:12.213Z,63.89
2018-04-12T01:34:40.587Z,63.05
2018-04-12T01:37:08.990Z,62.92
2018-04-12T01:39:37.448Z,63.12
2018-04-12T01:42:05.809Z,63.81
2018-04-12T01:44:34.181Z,63.51
2018-04-12T01:47:02.549Z,62.58
2018-04-12T01:49:30.927Z,64.57
2018-04-12T01:51:59.485Z,63.72
2018-04-12T01:54:27.854Z,63.96
2018-04-12T01:56:56.214Z,64.79
2018-04-12T01:59:24.575Z,63.98
2018-04-12T02:01:52.931Z,64.29
2018-04-12T02:04:21.323Z,65.83
2018-04-12T02:06:49.698Z,64.51
2018-04-12T02:09:18.079Z,63.93
2018-04-12T02:11:46.465Z,63.58
2018-04-12T02:14:14.830Z,62.32
2018-04-12T02:16:43.202Z,62.62
2018-04-12T02:19:11.609Z,63.06
2018-04-12T02:21:39.968Z,61.85
2018-04-12T02:24:08.336Z,62.03
2018-04-12T02:26:36.817Z,61.29
2018-04-12T02:29:05.367Z,61.52
2018-04-12T02:31:33.744Z,64.37
2018-04-12T02:34:02.137Z,63.29
2018-04-12T02:36:30.511Z,64.71
2018-04-12T02:38:58.963Z,62.75
2018-04-12T02:41:27.339Z,62.59
2018-04-12T02:43:55.713Z,61.78
2018-04-12T02:46:24.112Z,64.71
2018-04-12T02:48:52.506Z,62.86
2018-04-12T02:51:20.894Z,62.95
2018-04-12T02:53:49.307Z,65.52
2018-04-12T02:56:17.669Z,65.00
2018-04-12T02:58:46.262Z,63.20
2018-04-12T03:01:14.637Z,65.07
2018-04-12T03:03:43.027Z,66.22
2018-04-12T03:06:11.398Z,65.76
2018-04-12T03:08:39.871Z,64.35
2018-04-12T03:11:08.332Z,63.13
2018-04-12T03:13:36.699Z,64.76
2018-04-12T03:16:05.077Z,64.40
2018-04-12T03:18:33.605Z,64.36
2018-04-12T03:21:01.975Z,64.11
2018-04-12T03:23:30.427Z,63.39
2018-04-12T03:25:58.793Z,64.04
2018-04-12T03:28:27.337Z,63.28
2018-04-12T03:30:55.710Z,63.00
2018-04-12T03:33:24.146Z,65.86
2018-04-12T03:35:52.513Z,66.24
2018-04-12T03:38:20.881Z,62.96
2018-04-12T03:40:49.321Z,61.84
2018-04-12T03:43:17.786Z,65.70
2018-04-12T03:45:46.156Z,63.93
2018-04-12T03:48:14.541Z,63.83
2018-04-12T03:50:42.922Z,68.04
2018-04-12T03:53:11.333Z,65.80
2018-04-12T03:55:39.739Z,64.80
2018-04-12T03:58:08.119Z,61.82
2018-04-12T04:00:36.501Z,63.65
2018-04-12T04:03:04.883Z,67.86
2018-04-12T04:05:33.332Z,64.30
2018-04-12T04:08:01.767Z,64.37
2018-04-12T04:10:30.138Z,66.06
2018-04-12T04:12:58.505Z,63.74
2018-04-12T04:15:38.549Z,62.90
2018-04-12T04:18:18.598Z,63.19
2018-04-12T04:20:58.793Z,62.95
2018-04-12T04:23:27.253Z,64.14
2018-04-12T04:25:55.697Z,66.04
2018-04-12T04:28:24.130Z,64.92
2018-04-12T04:30:52.521Z,63.72
2018-04-12T04:33:20.898Z,62.51
2018-04-12T04:35:49.287Z,61.25
2018-04-12T04:38:17.758Z,60.96
2018-04-12T04:40:46.144Z,65.44
2018-04-12T04:43:14.529Z,63.72
2018-04-12T04:45:42.953Z,65.46
2018-04-12T04:48:11.340Z,65.05
2018-04-12T04:50:39.746Z,64.71
2018-04-12T04:53:08.268Z,65.88
2018-04-12T04:55:36.667Z,64.97
2018-04-12T04:58:05.392Z,65.32
2018-04-12T05:00:34.541Z,64.90
2018-04-12T05:03:02.950Z,65.73
2018-04-12T05:05:31.310Z,66.03
2018-04-12T05:07:59.802Z,66.60
2018-04-12T05:10:29.444Z,65.04
2018-04-12T05:12:57.961Z,68.32
2018-04-12T05:15:26.419Z,65.46
2018-04-12T05:17:54.851Z,65.15
2018-04-12T05:20:23.285Z,67.92
2018-04-12T05:22:51.785Z,66.14
2018-04-12T05:25:20.217Z,66.39
2018-04-12T05:27:48.958Z,65.57
2018-04-12T05:30:17.321Z,64.72
2018-04-12T05:32:45.700Z,66.88
2018-04-12T05:35:14.110Z,66.36
2018-04-12T05:37:42.529Z,65.52
2018-04-12T05:40:10.959Z,66.13
2018-04-12T05:42:39.346Z,65.27
2018-04-12T05:45:08.822Z,65.92
2018-04-12T05:47:37.487Z,65.59
2018-04-12T05:50:05.937Z,65.41
2018-04-12T05:52:34.441Z,69.31
2018-04-12T05:55:03.081Z,65.85
2018-04-12T05:57:31.613Z,65.71
2018-04-12T06:00:00.006Z,64.42
2018-04-12T06:02:28.561Z,63.55
2018-04-12T06:04:57.017Z,66.09
2018-04-12T06:07:25.494Z,65.59
2018-04-12T06:09:53.911Z,66.03
2018-04-12T06:12:22.299Z,67.28
2018-04-12T06:14:50.818Z,67.47
2018-04-12T06:17:19.238Z,66.16
2018-04-12T06:19:47.684Z,66.23
2018-04-12T06:22:16.203Z,70.82
2018-04-12T06:24:46.425Z,69.51
2018-04-12T06:27:14.909Z,66.70
2018-04-12T06:29:43.321Z,67.02
2018-04-12T06:32:11.730Z,67.47
2018-04-12T06:34:40.129Z,68.29
2018-04-12T06:37:08.542Z,66.12
2018-04-12T06:39:37.251Z,67.79
2018-04-12T06:42:05.711Z,65.10
2018-04-12T06:44:34.141Z,66.79
2018-04-12T06:47:02.581Z,66.02
2018-04-12T06:49:31.033Z,67.40
2018-04-12T06:51:59.552Z,68.81
2018-04-12T06:54:28.123Z,69.52
2018-04-12T06:56:56.612Z,66.08
2018-04-12T06:59:25.089Z,64.46
2018-04-12T07:01:53.669Z,63.70
2018-04-12T07:04:22.180Z,62.54
2018-04-12T07:06:50.597Z,60.92
2018-04-12T07:09:19.372Z,61.98
2018-04-12T07:11:47.813Z,62.14
2018-04-12T07:14:16.206Z,59.21
2018-04-12T07:16:44.595Z,59.57
2018-04-12T07:19:13.211Z,59.44
2018-04-12T07:21:41.747Z,57.77
2018-04-12T07:24:10.231Z,56.00
2018-04-12T07:26:38.935Z,55.46
2018-04-12T07:29:07.333Z,55.01
2018-04-12T07:31:35.799Z,54.90
2018-04-12T07:34:06.972Z,57.89
2018-04-12T07:36:35.558Z,56.94
2018-04-12T07:39:04.007Z,56.90
2018-04-12T07:41:32.431Z,58.16
2018-04-12T07:44:00.956Z,58.69
2018-04-12T07:46:29.604Z,59.16
2018-04-12T07:48:58.029Z,61.11
2018-04-12T07:51:26.593Z,58.17
2018-04-12T07:53:54.995Z,58.78
2018-04-12T07:56:23.455Z,60.12
2018-04-12T07:58:51.816Z,59.91
2018-04-12T08:01:20.186Z,59.29
2018-04-12T08:03:48.548Z,57.41
2018-04-12T08:06:16.996Z,57.65
2018-04-12T08:08:45.436Z,58.93
2018-04-12T08:11:13.820Z,56.84
2018-04-12T08:13:42.221Z,59.19
2018-04-12T08:16:10.629Z,57.08
2018-04-12T08:18:39.029Z,57.35
2018-04-12T08:21:07.585Z,57.05
2018-04-12T08:23:36.041Z,55.76
2018-04-12T08:26:04.423Z,55.37
2018-04-12T08:28:32.891Z,52.09
2018-04-12T08:31:01.301Z,51.51
2018-04-12T08:33:29.829Z,51.46
2018-04-12T08:35:58.213Z,49.03
2018-04-12T08:38:26.628Z,51.08
2018-04-12T08:40:55.021Z,49.23
2018-04-12T08:43:23.422Z,49.70
2018-04-12T08:45:51.892Z,48.18
2018-04-12T08:48:20.273Z,47.47
2018-04-12T08:50:48.729Z,47.61
2018-04-12T08:53:17.133Z,48.75
2018-04-12T08:55:45.558Z,54.11
2018-04-12T08:58:13.951Z,50.48
2018-04-12T09:00:42.371Z,48.21
2018-04-12T09:03:10.911Z,49.80
2018-04-12T09:05:39.306Z,49.93
2018-04-12T09:08:08.408Z,51.29
2018-04-12T09:10:36.908Z,56.36
2018-04-12T09:13:05.330Z,52.05
2018-04-12T09:15:33.775Z,49.53
2018-04-12T09:18:02.242Z,49.85
2018-04-12T09:20:30.657Z,49.57
2018-04-12T09:22:59.058Z,51.48
2018-04-12T09:25:27.461Z,50.53
2018-04-12T09:27:55.914Z,49.13
2018-04-12T09:30:24.309Z,46.09
2018-04-12T09:32:52.730Z,44.06
2018-04-12T09:35:21.138Z,44.95
2018-04-12T09:37:49.519Z,45.92
2018-04-12T09:40:18.062Z,43.55
2018-04-12T09:42:46.491Z,40.55
2018-04-12T09:45:14.898Z,38.93
2018-04-12T09:47:43.369Z,34.78
2018-04-12T09:50:11.774Z,33.78
2018-04-12T09:52:40.217Z,33.86
2018-04-12T09:55:08.606Z,31.55
2018-04-12T09:57:37.150Z,31.60
2018-04-12T10:00:05.593Z,31.93
2018-04-12T10:05:36.352Z,28.10
2018-04-12T10:08:10.490Z,31.63
2018-04-12T10:10:38.865Z,30.09
2018-04-12T10:13:07.282Z,27.92
2018-04-12T10:15:35.768Z,30.03
2018-04-12T10:18:04.173Z,29.29
2018-04-12T10:20:32.638Z,27.92
2018-04-12T10:23:01.057Z,27.70
2018-04-12T10:25:29.463Z,24.99
2018-04-12T10:27:57.891Z,28.59
2018-04-12T10:30:26.297Z,28.08
2018-04-12T10:32:55.029Z,27.65
2018-04-12T10:35:23.579Z,29.52
2018-04-12T10:37:52.156Z,28.97
2018-04-12T10:40:20.935Z,26.36
2018-04-12T10:42:49.726Z,26.28
2018-04-12T10:45:18.556Z,26.32
2018-04-12T10:47:47.364Z,28.16
2018-04-12T10:50:16.009Z,28.47
2018-04-12T10:52:44.781Z,27.44
2018-04-12T10:55:13.631Z,27.95
2018-04-12T10:57:42.466Z,28.55
2018-04-12T11:00:11.344Z,31.39
2018-04-12T11:02:39.990Z,28.08
2018-04-12T11:05:08.552Z,29.31
2018-04-12T11:07:36.981Z,28.81
2018-04-12T11:10:05.564Z,27.90
2018-04-12T11:12:33.994Z,27.41
2018-04-12T11:15:02.489Z,29.79
2018-04-12T11:17:30.947Z,28.74
2018-04-12T11:19:59.398Z,29.18
2018-04-12T11:22:27.845Z,29.94
2018-04-12T11:24:56.258Z,32.60
2018-04-12T11:27:24.764Z,33.64
2018-04-12T11:29:53.197Z,35.06
2018-04-12T11:32:21.591Z,35.07
2018-04-12T11:34:50.056Z,32.53
2018-04-12T11:37:18.458Z,32.51
2018-04-12T11:39:46.951Z,31.18
2018-04-12T11:42:15.349Z,30.95
2018-04-12T11:44:43.789Z,29.30
2018-04-12T11:47:12.261Z,30.33
2018-04-12T11:49:40.693Z,29.99
2018-04-12T11:52:09.155Z,31.17
2018-04-12T11:54:37.546Z,28.04
2018-04-12T11:57:06.003Z,27.32
2018-04-12T11:59:34.410Z,28.43
2018-04-12T12:02:02.805Z,27.85
2018-04-12T12:04:31.398Z,30.91
2018-04-12T12:06:59.951Z,30.10
2018-04-12T12:09:28.313Z,31.30
2018-04-12T12:11:56.711Z,32.04
2018-04-12T12:14:25.173Z,32.65
2018-04-12T12:16:53.641Z,33.27
2018-04-12T12:19:22.101Z,33.16
2018-04-12T12:21:50.492Z,34.01
2018-04-12T12:24:18.908Z,34.67
2018-04-12T12:26:47.284Z,33.62
2018-04-12T12:29:15.746Z,33.29
2018-04-12T12:31:44.159Z,33.89
2018-04-12T12:34:12.591Z,33.68
2018-04-12T12:36:40.993Z,34.85
2018-04-12T12:39:09.522Z,33.58
2018-04-12T12:41:37.965Z,32.46
2018-04-12T12:44:06.363Z,33.84
2018-04-12T12:46:34.782Z,33.34
2018-04-12T12:49:03.181Z,32.92
2018-04-12T12:51:31.706Z,33.39
2018-04-12T12:54:00.244Z,34.13
2018-04-12T12:56:28.665Z,33.35
2018-04-12T12:58:57.186Z,32.63
2018-04-12T13:01:25.638Z,34.96
2018-04-12T13:03:54.126Z,35.29
2018-04-12T13:06:22.596Z,34.50
2018-04-12T13:08:50.997Z,34.81
2018-04-12T13:11:19.783Z,35.10
2018-04-12T13:13:48.206Z,35.23
2018-04-12T13:16:16.585Z,36.56
2018-04-12T13:18:45.055Z,35.42
2018-04-12T13:21:13.458Z,35.28
2018-04-12T13:23:41.921Z,35.26
2018-04-12T13:26:10.297Z,33.14
2018-04-12T13:28:38.690Z,33.56
2018-04-12T13:31:07.117Z,32.95
2018-04-12T13:33:35.516Z,33.76
2018-04-12T13:36:03.975Z,33.56
2018-04-12T13:38:32.384Z,34.67
2018-04-12T13:41:00.945Z,32.85
2018-04-12T13:43:29.337Z,33.84
2018-04-12T13:45:57.774Z,34.10
2018-04-12T13:48:26.241Z,34.49
2018-04-12T13:51:00.632Z,34.01
2018-04-12T13:53:29.132Z,32.98
2018-04-12T13:56:00.720Z,33.73
2018-04-12T13:58:29.252Z,33.78
2018-04-12T14:00:57.789Z,37.42
2018-04-12T14:03:26.351Z,38.09
2018-04-12T14:05:57.141Z,37.79
2018-04-12T14:08:25.602Z,36.82
2018-04-12T14:10:54.644Z,36.82
2018-04-12T14:13:23.685Z,37.95
2018-04-12T14:15:52.210Z,38.23
2018-04-12T14:18:20.889Z,39.25
2018-04-12T14:20:49.425Z,37.56
2018-04-12T14:23:18.022Z,40.52
2018-04-12T14:25:46.432Z,40.86
2018-04-12T14:28:14.873Z,40.08
2018-04-12T14:30:43.248Z,39.17
2018-04-12T14:33:11.935Z,39.76
2018-04-12T14:35:40.453Z,41.78
2018-04-12T14:38:08.859Z,39.17
2018-04-12T14:40:37.367Z,40.06
2018-04-12T14:43:05.763Z,39.07
2018-04-12T14:45:34.250Z,40.16
2018-04-12T14:48:02.666Z,39.12
2018-04-12T14:50:31.148Z,40.09
2018-04-12T14:53:00.596Z,39.73
2018-04-12T14:55:29.162Z,40.56
2018-04-12T14:57:57.647Z,40.95
2018-04-12T15:00:26.065Z,40.57
2018-04-12T15:02:54.577Z,39.12
2018-04-12T15:05:22.997Z,38.12
2018-04-12T15:07:51.438Z,38.82
2018-04-12T15:10:19.890Z,39.37
2018-04-12T15:12:48.367Z,38.93
2018-04-12T15:15:18.710Z,40.66
2018-04-12T15:17:47.127Z,40.69
2018-04-12T15:20:15.730Z,40.84
2018-04-12T15:22:45.094Z,40.08
2018-04-12T15:25:13.536Z,42.56
2018-04-12T15:27:42.075Z,40.14
2018-04-12T15:30:10.539Z,41.43
2018-04-12T15:32:39.144Z,42.56
2018-04-12T15:35:07.611Z,41.22
2018-04-12T15:37:37.001Z,39.43
2018-04-12T15:40:05.418Z,38.67
2018-04-12T15:42:34.786Z,40.40
2018-04-12T15:45:03.260Z,39.22
2018-04-12T15:47:32.598Z,39.43
2018-04-12T15:50:01.070Z,40.30
2018-04-12T15:52:29.499Z,40.40
2018-04-12T15:54:57.977Z,41.42
2018-04-12T15:57:26.489Z,39.47
2018-04-12T15:59:54.917Z,39.02
2018-04-12T16:02:28.839Z,41.46
2018-04-12T16:04:59.384Z,39.45
2018-04-12T16:07:27.885Z,40.49
2018-04-12T16:09:56.426Z,38.59
2018-04-12T16:12:24.849Z,41.72
2018-04-12T16:14:53.520Z,41.79
2018-04-12T16:17:23.475Z,39.91
2018-04-12T16:19:51.885Z,41.55
2018-04-12T16:22:20.284Z,41.18
2018-04-12T16:24:48.663Z,40.38
2018-04-12T16:27:17.134Z,40.53
2018-04-12T16:29:45.593Z,41.63
2018-04-12T16:32:13.992Z,41.11
2018-04-12T16:34:42.363Z,40.83
2018-04-12T16:37:13.717Z,40.44
2018-04-12T16:39:42.253Z,39.91
2018-04-12T16:42:10.620Z,38.62
2018-04-12T16:44:39.171Z,40.28
2018-04-12T16:47:08.055Z,41.17
2018-04-12T16:49:37.379Z,42.24
2018-04-12T16:52:05.801Z,40.79
2018-04-12T16:54:34.197Z,40.84
2018-04-12T16:57:02.675Z,40.63
2018-04-12T16:59:31.475Z,40.99
2018-04-12T17:02:00.057Z,41.23
2018-04-12T17:04:28.450Z,39.94
2018-04-12T17:06:56.890Z,40.53
2018-04-12T17:09:25.370Z,40.49
2018-04-12T17:11:53.786Z,39.90
2018-04-12T17:14:22.213Z,41.49
2018-04-12T17:16:50.754Z,40.85
2018-04-12T17:19:19.257Z,40.55
2018-04-12T17:21:47.742Z,40.18
2018-04-12T17:24:16.214Z,39.72
2018-04-12T17:26:44.589Z,40.91
2018-04-12T17:29:12.982Z,39.82
2018-04-12T17:31:41.452Z,40.50
2018-04-12T17:34:09.825Z,41.43
2018-04-12T17:36:38.204Z,41.38
2018-04-12T17:39:06.716Z,41.73
2018-04-12T17:41:35.086Z,41.92
2018-04-12T17:44:03.545Z,42.38
2018-04-12T17:46:31.946Z,40.94
2018-04-12T17:49:00.330Z,42.31
2018-04-12T17:51:28.701Z,41.99
2018-04-12T17:53:57.912Z,42.86
2018-04-12T17:56:26.292Z,43.53
2018-04-12T17:58:54.698Z,44.82
2018-04-12T18:01:23.067Z,44.15
2018-04-12T18:03:51.434Z,44.29
2018-04-12T18:06:19.906Z,44.21
2018-04-12T18:08:48.583Z,44.62
2018-04-12T18:11:16.942Z,44.44
2018-04-12T18:13:45.309Z,45.67
2018-04-12T18:16:13.940Z,46.23
2018-04-12T18:18:42.348Z,47.26
2018-04-12T18:21:10.800Z,48.53
2018-04-12T18:23:39.194Z,49.89
2018-04-12T18:26:07.581Z,51.83
2018-04-12T18:28:35.968Z,52.09
2018-04-12T18:31:04.381Z,52.93
2018-04-12T18:33:32.796Z,52.08
2018-04-12T18:36:01.409Z,52.13
2018-04-12T18:38:29.821Z,51.86
2018-04-12T18:40:58.158Z,52.46
2018-04-12T18:43:26.533Z,51.39
2018-04-12T18:45:54.903Z,51.87
2018-04-12T18:48:23.326Z,51.61
2018-04-12T18:50:52.855Z,51.42
2018-04-12T18:53:21.235Z,52.57
2018-04-12T18:55:49.616Z,53.41
2018-04-12T18:58:18.003Z,52.55
2018-04-12T19:00:46.628Z,52.65
2018-04-12T19:03:15.033Z,52.55
2018-04-12T19:05:43.439Z,53.92
2018-04-12T19:08:12.414Z,55.09
2018-04-12T19:10:40.861Z,55.37
2018-04-12T19:13:09.317Z,54.58
2018-04-12T19:15:37.824Z,54.88
2018-04-12T19:18:06.404Z,55.01
2018-04-12T19:20:34.831Z,54.84
2018-04-12T19:23:03.259Z,54.46
2018-04-12T19:25:31.696Z,54.75
2018-04-12T19:28:00.096Z,54.14
2018-04-12T19:30:31.706Z,53.79
2018-04-12T19:33:00.097Z,52.97
2018-04-12T19:35:28.868Z,52.62
2018-04-12T19:37:57.282Z,52.48
2018-04-12T19:40:25.674Z,53.19
2018-04-12T19:42:54.106Z,53.14
2018-04-12T19:45:22.584Z,53.70
2018-04-12T19:47:51.160Z,53.90
2018-04-12T19:50:19.721Z,54.29
2018-04-12T19:52:48.256Z,55.30
2018-04-12T19:55:16.671Z,55.02
2018-04-12T19:57:45.081Z,54.73
2018-04-12T20:00:13.830Z,54.41
2018-04-12T20:02:42.271Z,54.37
2018-04-12T20:05:10.776Z,54.04
2018-04-12T20:07:39.217Z,55.34
2018-04-12T20:10:07.617Z,53.29
2018-04-12T20:12:36.081Z,54.29
2018-04-12T20:15:04.464Z,53.31
2018-04-12T20:17:32.865Z,52.76
2018-04-12T20:20:01.443Z,54.06
2018-04-12T20:22:29.962Z,55.14
2018-04-12T20:24:58.532Z,55.45
2018-04-12T20:27:27.797Z,54.49
2018-04-12T20:29:56.178Z,55.65
2018-04-12T20:32:24.570Z,56.34
2018-04-12T20:34:52.965Z,55.81
2018-04-12T20:37:21.447Z,56.46
2018-04-12T20:39:49.853Z,56.34
2018-04-12T20:42:18.237Z,56.35
2018-04-12T20:44:46.713Z,55.97
2018-04-12T20:47:15.111Z,56.00
2018-04-12T20:49:43.827Z,55.39
2018-04-12T20:52:12.400Z,55.13
2018-04-12T20:54:40.836Z,55.27
2018-04-12T20:57:09.227Z,56.14
2018-04-12T20:59:37.582Z,56.27
2018-04-12T21:02:06.020Z,55.85
2018-04-12T21:04:34.382Z,57.16
2018-04-12T21:07:02.785Z,57.17
2018-04-12T21:09:31.160Z,56.47
2018-04-12T21:11:59.566Z,56.10
2018-04-12T21:14:27.924Z,55.70
2018-04-12T21:16:56.381Z,54.72
2018-04-12T21:19:24.796Z,54.97
2018-04-12T21:21:53.248Z,54.28
2018-04-12T21:24:21.671Z,56.01
2018-04-12T21:26:50.135Z,54.94
2018-04-12T21:29:18.696Z,54.54
2018-04-12T21:31:47.323Z,54.75
2018-04-12T21:34:15.750Z,55.68
2018-04-12T21:36:44.123Z,55.47
2018-04-12T21:39:12.466Z,55.48
2018-04-12T21:41:40.902Z,55.65
2018-04-12T21:44:09.286Z,54.53
2018-04-12T21:46:37.687Z,56.40
2018-04-12T21:49:06.233Z,56.55
2018-04-12T21:51:34.611Z,52.82
2018-04-12T21:54:02.998Z,52.82
2018-04-12T21:56:31.407Z,53.96
2018-04-12T21:58:59.793Z,54.12
2018-04-12T22:01:28.257Z,56.80
2018-04-12T22:03:56.705Z,56.37
2018-04-12T22:06:25.161Z,55.25
2018-04-12T22:08:53.554Z,55.13
2018-04-12T22:11:22.083Z,53.47
2018-04-12T22:13:50.490Z,53.18
2018-04-12T22:16:18.891Z,54.60
2018-04-12T22:18:47.294Z,55.15
2018-04-12T22:21:15.692Z,54.63
2018-04-12T22:23:44.574Z,53.82
2018-04-12T22:26:13.041Z,53.00
2018-04-12T22:28:41.440Z,53.03
2018-04-12T22:31:10.741Z,54.29
2018-04-12T22:33:39.124Z,53.16
2018-04-12T22:36:07.635Z,54.00
2018-04-12T22:38:36.036Z,54.86
2018-04-12T22:41:04.411Z,54.30
2018-04-12T22:43:32.828Z,54.64
2018-04-12T22:46:01.225Z,53.15
2018-04-12T22:48:29.615Z,53.13
2018-04-12T22:50:58.048Z,53.25
2018-04-12T22:53:26.405Z,53.10
2018-04-12T22:55:54.843Z,52.73
2018-04-12T22:58:23.283Z,54.07
2018-04-12T23:00:51.658Z,54.53
2018-04-12T23:03:21.047Z,55.48
2018-04-12T23:05:49.436Z,54.69
2018-04-12T23:08:17.866Z,54.70
2018-04-12T23:10:46.308Z,54.69
2018-04-12T23:13:14.748Z,54.55
2018-04-12T23:15:43.268Z,56.72
2018-04-12T23:18:11.693Z,55.03
2018-04-12T23:20:40.051Z,55.07
2018-04-12T23:23:08.446Z,55.53
2018-04-12T23:25:37.065Z,55.93
2018-04-12T23:28:05.431Z,55.34
2018-04-12T23:30:33.782Z,57.53
2018-04-12T23:33:02.293Z,58.49
2018-04-12T23:35:30.636Z,60.09
2018-04-12T23:37:59.007Z,60.48
2018-04-12T23:40:27.357Z,58.85
2018-04-12T23:42:55.718Z,59.00
2018-04-12T23:45:24.108Z,59.67
2018-04-12T23:47:52.501Z,58.32
2018-04-12T23:50:20.894Z,61.21
2018-04-12T23:52:49.249Z,61.59
2018-04-12T23:55:17.609Z,59.30
2018-04-12T23:57:45.954Z,59.70
